createdAt,value
2023-05-04T00:01:27.489Z,6.90
2023-05-04T00:03:53.926Z,7.09
2023-05-04T00:06:20.336Z,6.78
2023-05-04T00:08:46.599Z,6.84
2023-05-04T00:11:12.838Z,7.24
2023-05-04T00:13:39.133Z,7.30
2023-05-04T00:16:05.462Z,7.24
2023-05-04T00:18:31.759Z,7.19
2023-05-04T00:20:58.015Z,7.22
2023-05-04T00:23:24.312Z,7.46
2023-05-04T00:25:50.576Z,7.23
2023-05-04T00:28:16.870Z,7.46
2023-05-04T00:30:43.335Z,7.66
2023-05-04T00:33:09.884Z,7.19
2023-05-04T00:35:36.383Z,7.49
2023-05-04T00:38:02.662Z,7.48
2023-05-04T00:40:28.924Z,7.62
2023-05-04T00:42:55.187Z,7.62
2023-05-04T00:45:21.456Z,7.65
2023-05-04T00:47:47.746Z,7.75
2023-05-04T00:50:14.041Z,7.72
2023-05-04T00:52:40.277Z,8.23
2023-05-04T00:55:06.536Z,8.11
2023-05-04T00:57:32.776Z,8.16
2023-05-04T00:59:59.052Z,7.93
2023-05-04T01:02:25.386Z,7.80
2023-05-04T01:04:51.725Z,8.04
2023-05-04T01:07:17.994Z,7.84
2023-05-04T01:09:44.355Z,8.16
2023-05-04T01:12:10.604Z,8.32
2023-05-04T01:14:36.857Z,8.06
2023-05-04T01:17:03.183Z,8.40
2023-05-04T01:19:29.465Z,8.26
2023-05-04T01:21:55.730Z,8.63
2023-05-04T01:24:21.990Z,8.46
2023-05-04T01:26:48.306Z,8.23
2023-05-04T01:29:14.577Z,7.94
2023-05-04T01:31:41.074Z,8.04
2023-05-04T01:34:07.363Z,8.48
2023-05-04T01:36:33.651Z,8.37
2023-05-04T01:38:59.922Z,8.61
2023-05-04T01:41:26.185Z,8.16
2023-05-04T01:43:52.456Z,8.32
2023-05-04T01:46:18.750Z,8.89
2023-05-04T01:48:45.057Z,8.79
2023-05-04T01:51:11.335Z,8.93
2023-05-04T01:53:37.601Z,8.62
2023-05-04T01:56:03.853Z,8.19
2023-05-04T01:58:30.181Z,8.78
2023-05-04T02:00:56.418Z,8.70
2023-05-04T02:03:22.826Z,9.03
2023-05-04T02:05:49.163Z,9.16
2023-05-04T02:08:15.395Z,8.87
2023-05-04T02:10:41.665Z,8.80
2023-05-04T02:13:08.042Z,8.36
2023-05-04T02:15:34.345Z,8.81
2023-05-04T02:18:00.638Z,9.18
2023-05-04T02:20:26.932Z,8.77
2023-05-04T02:22:53.368Z,8.97
2023-05-04T02:25:19.615Z,9.09
2023-05-04T02:27:45.876Z,8.66
2023-05-04T02:30:12.154Z,9.03
2023-05-04T02:32:38.569Z,8.96
2023-05-04T02:35:04.846Z,8.71
2023-05-04T02:37:31.086Z,8.88
2023-05-04T02:39:57.361Z,8.75
2023-05-04T02:42:23.618Z,8.24
2023-05-04T02:44:49.892Z,8.51
2023-05-04T02:47:16.138Z,8.76
2023-05-04T02:49:42.395Z,8.66
2023-05-04T02:52:08.685Z,8.68
2023-05-04T02:54:34.962Z,9.24
2023-05-04T02:57:01.215Z,9.18
2023-05-04T02:59:27.480Z,9.07
2023-05-04T03:01:53.817Z,9.08
2023-05-04T03:04:20.178Z,8.87
2023-05-04T03:06:46.457Z,9.01
2023-05-04T03:09:12.724Z,8.85
2023-05-04T03:11:38.986Z,8.89
2023-05-04T03:14:05.235Z,8.78
2023-05-04T03:16:31.494Z,8.85
2023-05-04T03:18:57.775Z,9.23
2023-05-04T03:21:24.027Z,9.15
2023-05-04T03:23:50.317Z,9.30
2023-05-04T03:26:16.573Z,8.66
2023-05-04T03:28:42.850Z,9.07
2023-05-04T03:31:09.117Z,9.03
2023-05-04T03:33:35.379Z,9.16
2023-05-04T03:36:01.667Z,9.31
2023-05-04T03:38:27.940Z,8.92
2023-05-04T03:40:54.187Z,9.02
2023-05-04T03:43:20.479Z,9.25
2023-05-04T03:45:46.761Z,9.13
2023-05-04T03:48:13.077Z,9.09
2023-05-04T03:50:39.360Z,9.54
2023-05-04T03:53:05.629Z,9.46
2023-05-04T03:55:31.899Z,9.70
2023-05-04T03:57:58.175Z,9.47
2023-05-04T04:00:24.432Z,9.26
2023-05-04T04:02:50.798Z,9.43
2023-05-04T04:05:17.096Z,9.21
2023-05-04T04:07:43.343Z,9.34
2023-05-04T04:10:09.617Z,9.40
2023-05-04T04:12:35.947Z,9.25
2023-05-04T04:15:02.215Z,9.72
2023-05-04T04:17:28.542Z,9.50
2023-05-04T04:19:54.833Z,9.87
2023-05-04T04:22:21.100Z,10.17
2023-05-04T04:24:47.362Z,9.75
2023-05-04T04:27:13.623Z,9.93
2023-05-04T04:29:39.901Z,9.89
2023-05-04T04:32:06.180Z,9.89
2023-05-04T04:34:32.478Z,10.02
2023-05-04T04:36:58.789Z,10.08
2023-05-04T04:39:25.119Z,10.09
2023-05-04T04:41:51.417Z,10.00
2023-05-04T04:44:17.707Z,10.72
2023-05-04T04:46:44.006Z,10.52
2023-05-04T04:49:10.340Z,10.79
2023-05-04T04:51:36.625Z,10.92
2023-05-04T04:54:02.897Z,10.67
2023-05-04T04:56:29.170Z,10.36
2023-05-04T04:58:55.419Z,10.68
2023-05-04T05:01:21.759Z,10.58
2023-05-04T05:03:48.069Z,10.43
2023-05-04T05:06:14.341Z,10.74
2023-05-04T05:08:40.660Z,10.43
2023-05-04T05:11:06.958Z,10.80
2023-05-04T05:13:33.215Z,10.13
2023-05-04T05:15:59.502Z,10.29
2023-05-04T05:18:25.800Z,10.36
2023-05-04T05:20:52.087Z,10.04
2023-05-04T05:23:18.372Z,10.14
2023-05-04T05:25:44.644Z,10.29
2023-05-04T05:28:10.897Z,10.32
2023-05-04T05:30:37.201Z,10.21
2023-05-04T05:33:03.672Z,10.51
2023-05-04T05:35:30.001Z,10.58
2023-05-04T05:37:56.247Z,10.21
2023-05-04T05:40:22.504Z,10.44
2023-05-04T05:42:48.777Z,10.10
2023-05-04T05:45:15.013Z,10.49
2023-05-04T05:47:41.309Z,10.11
2023-05-04T05:50:07.788Z,10.18
2023-05-04T05:52:34.290Z,10.17
2023-05-04T05:55:06.674Z,10.68
2023-05-04T05:57:32.937Z,10.58
2023-05-04T05:59:59.245Z,11.10
2023-05-04T06:02:25.601Z,10.70
2023-05-04T06:04:51.956Z,10.64
2023-05-04T06:07:18.318Z,10.77
2023-05-04T06:09:44.585Z,10.86
2023-05-04T06:12:10.828Z,11.16
2023-05-04T06:14:37.073Z,11.14
2023-05-04T06:17:03.339Z,10.70
2023-05-04T06:19:31.426Z,10.95
2023-05-04T06:21:57.837Z,10.71
2023-05-04T06:24:24.146Z,10.95
2023-05-04T06:26:50.439Z,11.15
2023-05-04T06:29:16.720Z,10.52
2023-05-04T06:31:43.006Z,11.20
2023-05-04T06:34:09.325Z,10.79
2023-05-04T06:36:35.665Z,11.20
2023-05-04T06:39:01.952Z,10.94
2023-05-04T06:41:28.321Z,10.95
2023-05-04T06:43:55.605Z,11.22
2023-05-04T06:46:23.730Z,11.51
2023-05-04T06:48:49.987Z,11.48
2023-05-04T06:51:16.270Z,11.42
2023-05-04T06:53:42.542Z,11.43
2023-05-04T06:56:08.826Z,11.56
2023-05-04T06:58:35.089Z,11.24
2023-05-04T07:01:01.365Z,11.14
2023-05-04T07:03:27.666Z,11.54
2023-05-04T07:05:53.946Z,11.26
2023-05-04T07:08:20.262Z,11.31
2023-05-04T07:10:46.528Z,11.40
2023-05-04T07:13:12.801Z,11.55
2023-05-04T07:15:39.063Z,11.44
2023-05-04T07:18:05.369Z,11.20
2023-05-04T07:20:31.675Z,10.84
2023-05-04T07:22:57.952Z,10.43
2023-05-04T07:25:24.214Z,10.43
2023-05-04T07:27:50.507Z,9.93
2023-05-04T07:30:16.768Z,10.28
2023-05-04T07:32:43.086Z,10.49
2023-05-04T07:35:09.368Z,10.33
2023-05-04T07:37:35.637Z,11.02
2023-05-04T07:40:01.949Z,11.03
2023-05-04T07:42:28.274Z,9.94
2023-05-04T07:44:54.517Z,10.83
2023-05-04T07:47:20.769Z,10.74
2023-05-04T07:49:47.056Z,10.58
2023-05-04T07:52:13.339Z,11.13
2023-05-04T07:54:39.605Z,10.46
2023-05-04T07:57:05.861Z,10.41
2023-05-04T07:59:32.134Z,10.16
2023-05-04T08:01:58.439Z,9.98
2023-05-04T08:04:24.775Z,10.54
2023-05-04T08:06:51.052Z,10.42
2023-05-04T08:09:17.328Z,10.59
2023-05-04T08:11:43.600Z,10.16
2023-05-04T08:14:09.963Z,10.32
2023-05-04T08:16:36.268Z,10.50
2023-05-04T08:19:02.545Z,10.40
2023-05-04T08:21:28.816Z,10.11
2023-05-04T08:23:55.070Z,9.65
2023-05-04T08:26:21.359Z,9.95
2023-05-04T08:28:47.612Z,10.11
2023-05-04T08:31:13.994Z,10.25
2023-05-04T08:33:40.325Z,9.91
2023-05-04T08:36:06.601Z,10.48
2023-05-04T08:38:32.892Z,10.27
2023-05-04T08:40:59.173Z,10.16
2023-05-04T08:43:25.416Z,10.41
2023-05-04T08:45:51.761Z,9.88
2023-05-04T08:48:18.079Z,9.34
2023-05-04T08:50:44.366Z,9.22
2023-05-04T08:53:10.613Z,9.71
2023-05-04T08:55:36.900Z,9.75
2023-05-04T08:58:03.197Z,9.67
2023-05-04T09:00:29.524Z,9.13
2023-05-04T09:02:55.957Z,9.61
2023-05-04T09:05:22.273Z,9.88
2023-05-04T09:07:48.569Z,10.02
2023-05-04T09:10:14.818Z,10.06
2023-05-04T09:12:41.140Z,9.66
2023-05-04T09:15:07.477Z,9.80
2023-05-04T09:17:35.196Z,10.65
2023-05-04T09:20:02.641Z,10.75
2023-05-04T09:22:29.024Z,11.46
2023-05-04T09:24:55.350Z,11.30
2023-05-04T09:27:21.663Z,10.32
2023-05-04T09:29:47.945Z,9.92
2023-05-04T09:32:14.255Z,10.13
2023-05-04T09:34:40.537Z,9.99
2023-05-04T09:37:06.777Z,9.91
2023-05-04T09:39:33.068Z,10.45
2023-05-04T09:41:59.393Z,10.65
2023-05-04T09:44:27.601Z,10.76
2023-05-04T09:46:55.790Z,10.15
2023-05-04T09:49:22.074Z,9.97
2023-05-04T09:51:48.337Z,9.86
2023-05-04T09:54:14.605Z,10.23
2023-05-04T09:56:40.883Z,11.10
2023-05-04T09:59:07.169Z,10.70
2023-05-04T10:01:33.477Z,11.31
2023-05-04T10:03:59.802Z,10.34
2023-05-04T10:06:26.066Z,10.57
2023-05-04T10:08:52.317Z,10.51
2023-05-04T10:11:18.582Z,9.82
2023-05-04T10:13:44.861Z,9.92
2023-05-04T10:16:11.175Z,10.34
2023-05-04T10:18:37.468Z,10.25
2023-05-04T10:21:03.757Z,10.54
2023-05-04T10:23:30.053Z,10.78
2023-05-04T10:25:56.302Z,11.20
2023-05-04T10:28:22.564Z,9.92
2023-05-04T10:30:48.840Z,10.82
2023-05-04T10:33:15.150Z,10.75
2023-05-04T10:35:41.498Z,12.05
2023-05-04T10:38:07.812Z,11.41
2023-05-04T10:40:34.087Z,10.49
2023-05-04T10:43:00.375Z,10.85
2023-05-04T10:45:26.697Z,11.31
2023-05-04T10:47:53.085Z,10.92
2023-05-04T10:50:19.440Z,11.42
2023-05-04T10:52:45.958Z,11.00
2023-05-04T10:55:12.235Z,10.29
2023-05-04T10:57:38.494Z,10.47
2023-05-04T11:00:04.764Z,9.77
2023-05-04T11:02:33.092Z,9.40
2023-05-04T11:04:59.704Z,9.19
2023-05-04T11:07:25.946Z,8.45
2023-05-04T11:09:52.199Z,9.11
2023-05-04T11:12:18.455Z,9.18
2023-05-04T11:14:44.726Z,9.53
2023-05-04T11:17:26.659Z,8.77
2023-05-04T11:19:54.241Z,8.48
2023-05-04T11:22:20.615Z,7.82
2023-05-04T11:24:46.898Z,7.80
2023-05-04T11:27:13.164Z,7.11
2023-05-04T11:29:39.459Z,7.62
2023-05-04T11:32:05.752Z,7.49
2023-05-04T11:34:32.033Z,7.56
2023-05-04T11:36:58.318Z,7.46
2023-05-04T11:39:24.601Z,8.09
2023-05-04T11:41:50.866Z,8.18
2023-05-04T11:44:17.111Z,7.49
2023-05-04T11:46:43.397Z,8.12
2023-05-04T11:49:09.695Z,7.89
2023-05-04T11:51:36.015Z,7.66
2023-05-04T11:54:02.376Z,7.34
2023-05-04T11:56:28.631Z,7.26
2023-05-04T11:58:54.906Z,7.48
2023-05-04T12:01:21.187Z,7.32
2023-05-04T12:03:53.838Z,7.32
2023-05-04T12:06:20.543Z,7.69
2023-05-04T12:08:46.801Z,7.95
2023-05-04T12:11:13.083Z,7.60
2023-05-04T12:13:39.322Z,7.92
2023-05-04T12:16:05.605Z,7.51
2023-05-04T12:18:31.925Z,7.64
2023-05-04T12:20:58.191Z,7.00
2023-05-04T12:23:24.482Z,7.12
2023-05-04T12:25:57.809Z,7.29
2023-05-04T12:28:24.823Z,7.82
2023-05-04T12:30:51.109Z,8.09
2023-05-04T12:33:17.385Z,8.66
2023-05-04T12:35:43.633Z,8.88
2023-05-04T12:38:09.889Z,7.74
2023-05-04T12:40:36.138Z,7.54
2023-05-04T12:43:02.399Z,7.02
2023-05-04T12:45:28.655Z,7.40
2023-05-04T12:47:54.956Z,7.88
2023-05-04T12:50:21.431Z,7.67
2023-05-04T12:52:47.746Z,6.92
2023-05-04T12:55:14.030Z,6.54
2023-05-04T12:57:40.283Z,6.22
2023-05-04T13:00:06.571Z,6.31
2023-05-04T13:02:32.929Z,6.38
2023-05-04T13:04:59.344Z,5.99
2023-05-04T13:07:25.620Z,6.01
2023-05-04T13:09:51.866Z,5.88
2023-05-04T13:12:18.148Z,5.98
2023-05-04T13:14:44.470Z,5.74
2023-05-04T13:17:10.763Z,5.82
2023-05-04T13:19:37.040Z,5.82
2023-05-04T13:22:03.321Z,5.95
2023-05-04T13:24:29.620Z,5.26
2023-05-04T13:26:55.900Z,5.65
2023-05-04T13:29:22.170Z,6.18
2023-05-04T13:31:48.454Z,5.92
2023-05-04T13:34:14.789Z,5.61
2023-05-04T13:36:41.076Z,5.66
2023-05-04T13:39:07.353Z,5.02
2023-05-04T13:41:33.601Z,5.36
2023-05-04T13:43:59.883Z,5.02
2023-05-04T13:46:26.167Z,4.91
2023-05-04T13:48:52.471Z,4.89
2023-05-04T13:51:18.717Z,5.03
2023-05-04T13:53:44.994Z,4.78
2023-05-04T13:56:11.304Z,5.08
2023-05-04T13:58:37.623Z,5.16
2023-05-04T14:01:03.926Z,4.93
2023-05-04T14:03:30.224Z,5.32
2023-05-04T14:05:56.521Z,5.31
2023-05-04T14:08:22.856Z,5.18
2023-05-04T14:10:49.119Z,5.38
2023-05-04T14:13:15.482Z,5.73
2023-05-04T14:15:41.786Z,5.65
2023-05-04T14:18:08.093Z,5.71
2023-05-04T14:20:34.422Z,5.79
2023-05-04T14:23:01.720Z,5.25
2023-05-04T14:25:28.033Z,5.41
2023-05-04T14:27:54.324Z,5.52
2023-05-04T14:30:20.594Z,4.94
2023-05-04T14:32:46.892Z,5.16
2023-05-04T14:35:13.190Z,5.20
2023-05-04T14:37:39.532Z,5.09
2023-05-04T14:40:06.171Z,5.26
2023-05-04T14:42:32.658Z,4.77
2023-05-04T14:44:58.950Z,4.62
2023-05-04T14:47:25.201Z,4.87
2023-05-04T14:49:51.499Z,4.50
2023-05-04T14:52:17.779Z,4.54
2023-05-04T14:54:44.052Z,4.45
2023-05-04T14:57:10.333Z,4.25
2023-05-04T14:59:36.583Z,4.50
2023-05-04T15:02:02.846Z,4.47
2023-05-04T15:04:29.097Z,4.60
2023-05-04T15:06:55.353Z,4.43
2023-05-04T15:09:21.638Z,4.24
2023-05-04T15:11:47.912Z,4.16
2023-05-04T15:14:14.165Z,4.37
2023-05-04T15:16:40.437Z,4.10
2023-05-04T15:19:06.701Z,3.87
2023-05-04T15:21:32.964Z,3.83
2023-05-04T15:23:59.228Z,3.85
2023-05-04T15:26:25.489Z,3.70
2023-05-04T15:28:53.958Z,3.74
2023-05-04T15:31:20.513Z,3.68
2023-05-04T15:33:46.775Z,3.79
2023-05-04T15:36:13.042Z,4.01
2023-05-04T15:38:39.360Z,4.05
2023-05-04T15:41:05.650Z,3.89
2023-05-04T15:43:31.914Z,3.83
2023-05-04T15:45:58.156Z,3.93
2023-05-04T15:48:24.433Z,3.90
2023-05-04T15:50:50.743Z,3.94
2023-05-04T15:53:17.027Z,3.70
2023-05-04T15:55:43.290Z,3.76
2023-05-04T15:58:09.554Z,3.40
2023-05-04T16:00:35.808Z,3.68
2023-05-04T16:03:02.193Z,3.67
2023-05-04T16:05:28.590Z,3.86
2023-05-04T16:07:54.860Z,4.13
2023-05-04T16:10:21.312Z,3.90
2023-05-04T16:12:47.640Z,3.34
2023-05-04T16:15:13.913Z,3.44
2023-05-04T16:17:40.283Z,3.46
2023-05-04T16:20:06.753Z,3.49
2023-05-04T16:22:33.182Z,3.40
2023-05-04T16:24:59.462Z,3.20
2023-05-04T16:27:25.749Z,3.06
2023-05-04T16:29:52.020Z,3.31
2023-05-04T16:32:18.298Z,3.33
2023-05-04T16:34:44.550Z,3.43
2023-05-04T16:37:11.057Z,3.82
2023-05-04T16:39:37.598Z,5.27
2023-05-04T16:42:03.897Z,3.66
2023-05-04T16:44:30.158Z,3.44
2023-05-04T16:46:56.434Z,3.33
2023-05-04T16:49:22.691Z,3.47
2023-05-04T16:51:48.938Z,3.58
2023-05-04T16:54:15.202Z,3.32
2023-05-04T16:56:41.500Z,3.62
2023-05-04T16:59:07.778Z,3.82
2023-05-04T17:01:34.437Z,4.06
2023-05-04T17:04:00.747Z,3.95
2023-05-04T17:06:27.040Z,3.50
2023-05-04T17:08:53.356Z,3.82
2023-05-04T17:11:19.643Z,3.72
2023-05-04T17:13:45.942Z,3.78
2023-05-04T17:16:12.471Z,3.72
2023-05-04T17:18:38.784Z,3.81
2023-05-04T17:21:05.088Z,3.86
2023-05-04T17:23:31.358Z,3.74
2023-05-04T17:25:57.614Z,3.48
2023-05-04T17:28:23.877Z,3.62
2023-05-04T17:30:50.155Z,3.38
2023-05-04T17:33:16.458Z,3.17
2023-05-04T17:35:42.797Z,3.33
2023-05-04T17:38:09.131Z,3.16
2023-05-04T17:40:35.401Z,3.07
2023-05-04T17:43:01.687Z,3.42
2023-05-04T17:45:28.052Z,3.27
2023-05-04T17:47:54.430Z,3.77
2023-05-04T17:50:20.837Z,3.63
2023-05-04T17:52:47.105Z,3.66
2023-05-04T17:55:13.410Z,3.60
2023-05-04T17:57:39.673Z,5.05
2023-05-04T18:00:06.105Z,4.73
2023-05-04T18:02:32.558Z,3.43
2023-05-04T18:04:58.865Z,3.58
2023-05-04T18:07:25.121Z,3.46
2023-05-04T18:09:51.427Z,3.80
2023-05-04T18:12:17.717Z,3.71
2023-05-04T18:14:43.984Z,3.69
2023-05-04T18:17:10.272Z,3.58
2023-05-04T18:19:36.534Z,3.65
2023-05-04T18:22:02.826Z,3.38
2023-05-04T18:24:29.115Z,3.18
2023-05-04T18:26:55.403Z,3.10
2023-05-04T18:29:21.722Z,3.73
2023-05-04T18:31:48.013Z,3.96
2023-05-04T18:34:14.352Z,4.11
2023-05-04T18:36:40.633Z,3.89
2023-05-04T18:39:06.988Z,3.96
2023-05-04T18:41:33.293Z,3.68
2023-05-04T18:43:59.542Z,3.93
2023-05-04T18:46:25.829Z,3.78
2023-05-04T18:48:52.121Z,3.77
2023-05-04T18:51:18.404Z,3.57
2023-05-04T18:53:44.699Z,3.64
2023-05-04T18:56:10.958Z,3.72
2023-05-04T18:58:37.231Z,3.83
2023-05-04T19:01:03.551Z,3.42
2023-05-04T19:03:29.916Z,3.80
2023-05-04T19:05:56.217Z,3.93
2023-05-04T19:08:22.457Z,3.69
2023-05-04T19:10:48.727Z,3.47
2023-05-04T19:13:15.062Z,3.10
2023-05-04T19:15:41.364Z,2.94
2023-05-04T19:18:07.673Z,3.01
2023-05-04T19:20:33.980Z,2.86
2023-05-04T19:23:00.236Z,2.94
2023-05-04T19:25:34.180Z,2.93
2023-05-04T19:28:01.162Z,2.79
2023-05-04T19:30:27.429Z,3.07
2023-05-04T19:32:53.779Z,3.12
2023-05-04T19:35:20.079Z,3.10
2023-05-04T19:37:46.352Z,3.04
2023-05-04T19:40:12.603Z,3.25
2023-05-04T19:42:38.878Z,3.76
2023-05-04T19:45:05.143Z,3.80
2023-05-04T19:47:31.409Z,3.51
2023-05-04T19:49:57.682Z,3.55
2023-05-04T19:52:23.967Z,3.65
2023-05-04T19:54:50.243Z,3.73
2023-05-04T19:57:16.525Z,3.42
2023-05-04T19:59:44.785Z,3.71
2023-05-04T20:02:12.458Z,4.40
2023-05-04T20:04:38.784Z,4.07
2023-05-04T20:07:05.036Z,3.91
2023-05-04T20:09:31.290Z,3.83
2023-05-04T20:11:57.590Z,3.05
2023-05-04T20:14:23.879Z,2.75
2023-05-04T20:16:50.181Z,2.71
2023-05-04T20:19:16.945Z,2.70
2023-05-04T20:21:43.263Z,2.72
2023-05-04T20:24:09.540Z,2.49
2023-05-04T20:26:35.786Z,2.48
2023-05-04T20:29:02.055Z,2.56
2023-05-04T20:31:28.353Z,2.71
2023-05-04T20:33:54.642Z,2.76
2023-05-04T20:36:20.906Z,2.84
2023-05-04T20:38:47.160Z,3.14
2023-05-04T20:41:13.457Z,3.11
2023-05-04T20:43:39.704Z,3.07
2023-05-04T20:46:06.060Z,3.39
2023-05-04T20:48:32.368Z,3.31
2023-05-04T20:51:10.528Z,3.83
2023-05-04T20:53:40.097Z,4.45
2023-05-04T20:56:06.360Z,4.23
2023-05-04T20:58:32.657Z,4.62
2023-05-04T21:00:58.948Z,3.96
2023-05-04T21:03:25.287Z,3.70
2023-05-04T21:05:51.583Z,4.65
2023-05-04T21:08:17.830Z,5.13
2023-05-04T21:10:44.088Z,4.54
2023-05-04T21:13:10.436Z,4.83
2023-05-04T21:15:36.814Z,4.67
2023-05-04T21:18:03.157Z,4.35
2023-05-04T21:20:29.413Z,4.13
2023-05-04T21:22:55.706Z,4.27
2023-05-04T21:25:21.964Z,4.44
2023-05-04T21:27:48.210Z,4.56
2023-05-04T21:30:14.489Z,4.90
2023-05-04T21:32:40.774Z,4.44
2023-05-04T21:35:07.073Z,5.17
2023-05-04T21:37:33.332Z,5.48
2023-05-04T21:39:59.580Z,5.36
2023-05-04T21:42:25.840Z,5.65
2023-05-04T21:44:52.094Z,5.44
2023-05-04T21:47:18.368Z,5.48
2023-05-04T21:49:44.656Z,5.41
2023-05-04T21:52:11.468Z,5.43
2023-05-04T21:54:37.747Z,5.02
2023-05-04T21:57:04.082Z,4.95
2023-05-04T21:59:30.417Z,4.93
2023-05-04T22:01:56.662Z,4.13
2023-05-04T22:04:22.938Z,3.83
2023-05-04T22:06:49.298Z,4.08
2023-05-04T22:09:15.575Z,4.12
2023-05-04T22:11:41.818Z,4.54
2023-05-04T22:14:08.069Z,4.82
2023-05-04T22:16:34.384Z,4.65
2023-05-04T22:19:00.690Z,4.18
2023-05-04T22:21:26.983Z,4.10
2023-05-04T22:23:53.230Z,4.02
2023-05-04T22:26:19.485Z,3.93
2023-05-04T22:28:45.732Z,3.84
2023-05-04T22:31:12.043Z,4.24
2023-05-04T22:33:38.341Z,4.02
2023-05-04T22:36:04.587Z,3.80
2023-05-04T22:38:30.852Z,4.20
2023-05-04T22:40:57.123Z,4.48
2023-05-04T22:43:23.380Z,4.68
2023-05-04T22:45:49.645Z,4.23
2023-05-04T22:48:15.908Z,4.33
2023-05-04T22:50:42.187Z,4.44
2023-05-04T22:53:08.511Z,4.07
2023-05-04T22:55:34.849Z,4.20
2023-05-04T22:58:01.137Z,3.93
2023-05-04T23:00:27.443Z,3.81
2023-05-04T23:02:53.794Z,3.67
2023-05-04T23:05:20.110Z,3.70
2023-05-04T23:07:46.361Z,3.55
2023-05-04T23:10:12.625Z,3.48
2023-05-04T23:12:38.875Z,3.47
2023-05-04T23:15:05.149Z,3.12
2023-05-04T23:17:31.446Z,2.95
2023-05-04T23:19:57.751Z,3.23
2023-05-04T23:22:24.032Z,3.21
2023-05-04T23:24:50.300Z,3.40
2023-05-04T23:27:16.568Z,3.46
2023-05-04T23:29:42.821Z,3.03
2023-05-04T23:32:09.155Z,3.28
2023-05-04T23:34:35.434Z,3.32
2023-05-04T23:37:01.701Z,3.27
2023-05-04T23:39:27.977Z,3.20
2023-05-04T23:41:54.287Z,3.29
2023-05-04T23:44:20.559Z,3.12
2023-05-04T23:46:46.842Z,3.03
2023-05-04T23:49:13.135Z,2.81
2023-05-04T23:51:39.396Z,3.23
2023-05-04T23:54:05.676Z,3.18
2023-05-04T23:56:31.960Z,3.18
2023-05-04T23:58:58.239Z,3.30
